Time;durP1;ratioP1;P1;durP2;ratioP2;P2;SDS_P1;SDS_P2;PMS_P1;PMS_P2;Temp;Humidity;BMP_temperature;BMP_pressure;BME280_temperature;BME280_humidity;BME280_pressure;Samples;Min_cycle;Max_cycle;Signal;HPM_P1;HPM_P2
2022/12/27 00:00:14;;;;;;;30.20;12.48;;;;;;;;;;5033605;28;20030;-40
2022/12/27 00:02:40;;;;;;;35.28;12.70;;;;;;;;;;5033850;28;20032;-40
2022/12/27 00:05:07;;;;;;;28.05;11.88;;;;;;;;;;5033926;28;20053;-40
2022/12/27 00:07:33;;;;;;;29.95;12.45;;;;;;;;;;5033699;28;20498;-40
2022/12/27 00:09:58;;;;;;;32.20;11.52;;;;;;;;;;5032373;28;20061;-43
2022/12/27 00:12:23;;;;;;;26.48;10.43;;;;;;;;;;5033579;28;20056;-41
2022/12/27 00:14:49;;;;;;;31.95;13.15;;;;;;;;;;5033300;28;20033;-40
2022/12/27 00:17:14;;;;;;;29.52;11.77;;;;;;;;;;5033439;28;20017;-41
2022/12/27 00:19:40;;;;;;;26.73;10.30;;;;;;;;;;5033274;28;20609;-40
2022/12/27 00:22:06;;;;;;;26.15;9.95;;;;;;;;;;5033284;28;20045;-41
2022/12/27 00:24:34;;;;;;;24.60;11.77;;;;;;;;;;5033239;28;20065;-40
2022/12/27 00:26:59;;;;;;;28.27;11.80;;;;;;;;;;5033764;28;20099;-41
2022/12/27 00:29:24;;;;;;;32.72;9.68;;;;;;;;;;5031731;28;20504;-41
2022/12/27 00:31:50;;;;;;;20.27;8.75;;;;;;;;;;5033334;28;20021;-41
2022/12/27 00:34:15;;;;;;;25.85;9.25;;;;;;;;;;5033094;28;20076;-41
2022/12/27 00:36:40;;;;;;;23.23;9.88;;;;;;;;;;5032894;28;20028;-41
2022/12/27 00:39:06;;;;;;;29.95;11.85;;;;;;;;;;5032969;28;20083;-40
2022/12/27 00:41:31;;;;;;;18.17;7.82;;;;;;;;;;5033179;28;20017;-41
2022/12/27 00:43:57;;;;;;;27.92;10.30;;;;;;;;;;5031476;28;20045;-41
2022/12/27 00:46:22;;;;;;;25.20;8.98;;;;;;;;;;5032724;28;20045;-41
2022/12/27 00:48:48;;;;;;;23.13;9.68;;;;;;;;;;5032872;28;20076;-41
2022/12/27 00:51:17;;;;;;;25.85;10.75;;;;;;;;;;5032756;28;20468;-40
2022/12/27 00:53:43;;;;;;;25.95;10.60;;;;;;;;;;5032920;28;20091;-40
2022/12/27 00:56:10;;;;;;;33.45;10.65;;;;;;;;;;5032649;28;20423;-40
2022/12/27 00:58:36;;;;;;;31.58;13.02;;;;;;;;;;5032551;28;20108;-40
2022/12/27 01:01:05;;;;;;;30.20;10.70;;;;;;;;;;5032853;28;20021;-40
2022/12/27 01:03:31;;;;;;;23.45;11.95;;;;;;;;;;5032526;28;20064;-41
2022/12/27 01:05:56;;;;;;;33.83;12.80;;;;;;;;;;5032439;28;20048;-40
2022/12/27 01:08:22;;;;;;;31.73;11.18;;;;;;;;;;5032256;28;20056;-41
2022/12/27 01:10:47;;;;;;;23.38;10.45;;;;;;;;;;5032205;28;20029;-41
2022/12/27 01:13:12;;;;;;;25.52;8.65;;;;;;;;;;5032435;28;20499;-40
2022/12/27 01:15:40;;;;;;;21.08;9.65;;;;;;;;;;5014497;28;20026;-40
2022/12/27 01:18:05;;;;;;;23.55;8.93;;;;;;;;;;5032250;28;20029;-40
2022/12/27 01:20:31;;;;;;;30.70;10.35;;;;;;;;;;5032167;28;20451;-40
2022/12/27 01:22:56;;;;;;;30.73;9.90;;;;;;;;;;5032083;28;20033;-41
2022/12/27 01:25:21;;;;;;;28.48;9.48;;;;;;;;;;5032384;28;20036;-41
2022/12/27 01:27:47;;;;;;;21.90;9.38;;;;;;;;;;5031929;28;20061;-41
2022/12/27 01:30:12;;;;;;;35.15;9.77;;;;;;;;;;5032050;28;20025;-40
2022/12/27 01:32:37;;;;;;;27.20;9.88;;;;;;;;;;5031934;28;20690;-40
2022/12/27 01:35:03;;;;;;;31.73;11.60;;;;;;;;;;5032012;28;20029;-42
2022/12/27 01:37:29;;;;;;;32.33;11.50;;;;;;;;;;5031849;28;20029;-41
2022/12/27 01:39:54;;;;;;;30.58;11.60;;;;;;;;;;5031746;28;20026;-41
2022/12/27 01:45:24;;;;;;;24.70;10.18;;;;;;;;;;5032084;28;20365;-41
2022/12/27 01:47:59;;;;;;;29.25;8.95;;;;;;;;;;5031027;28;20565;-41
2022/12/27 01:50:27;;;;;;;27.25;10.40;;;;;;;;;;5032024;28;20396;-41
2022/12/27 01:53:11;;;;;;;36.17;10.57;;;;;;;;;;5031557;28;20518;-40
2022/12/27 01:55:43;;;;;;;21.95;9.25;;;;;;;;;;5031528;28;20038;-41
2022/12/27 01:58:32;;;;;;;20.85;9.32;;;;;;;;;;5013858;28;20026;-41
2022/12/27 02:00:57;;;;;;;31.27;12.40;;;;;;;;;;5022113;28;20163;-40
2022/12/27 02:03:28;;;;;;;31.95;10.02;;;;;;;;;;5031550;28;20033;-41
2022/12/27 02:05:54;;;;;;;19.27;8.02;;;;;;;;;;5031374;28;20021;-40
2022/12/27 02:08:28;;;;;;;26.35;8.82;;;;;;;;;;5013621;28;20744;-41
2022/12/27 02:10:54;;;;;;;20.23;9.95;;;;;;;;;;5031395;28;20021;-41
2022/12/27 02:13:20;;;;;;;19.17;8.60;;;;;;;;;;5031511;28;20487;-41
2022/12/27 02:15:45;;;;;;;33.88;11.05;;;;;;;;;;5031149;28;20033;-41
2022/12/27 02:18:11;;;;;;;20.52;8.68;;;;;;;;;;5031591;28;20144;-41
2022/12/27 02:21:05;;;;;;;23.70;8.02;;;;;;;;;;5031496;28;20025;-41
2022/12/27 02:26:23;;;;;;;23.98;7.88;;;;;;;;;;5031627;28;20045;-40
2022/12/27 02:29:01;;;;;;;21.58;8.02;;;;;;;;;;5031249;28;20049;-40
2022/12/27 02:31:46;;;;;;;22.67;8.85;;;;;;;;;;5029979;28;20554;-40
2022/12/27 02:34:17;;;;;;;32.10;8.88;;;;;;;;;;5034772;28;20041;-41
2022/12/27 02:36:44;;;;;;;31.15;10.18;;;;;;;;;;5035213;28;20046;-41
2022/12/27 02:39:10;;;;;;;17.67;8.07;;;;;;;;;;5017425;28;20017;-41
2022/12/27 02:57:07;;;;;;;20.13;9.10;;;;;;;;;;5035228;28;20046;-41
2022/12/27 02:58:30;;;;;;;22.30;8.48;;;;;;;;;;5035107;28;20033;-40
2022/12/27 03:03:49;;;;;;;22.05;8.13;;;;;;;;;;5034993;28;20048;-41
2022/12/27 03:09:10;;;;;;;28.92;9.77;;;;;;;;;;5034530;28;20041;-41
2022/12/27 03:17:24;;;;;;;23.60;9.18;;;;;;;;;;5034908;28;20361;-41
2022/12/27 03:25:28;;;;;;;20.02;8.02;;;;;;;;;;5034345;28;20039;-40
2022/12/27 03:33:46;;;;;;;22.95;9.05;;;;;;;;;;5034059;28;20434;-41
2022/12/27 03:39:15;;;;;;;27.80;9.45;;;;;;;;;;4993326;28;20061;-41
2022/12/27 03:44:35;;;;;;;24.25;9.48;;;;;;;;;;5033906;28;20034;-40
2022/12/27 03:47:24;;;;;;;17.75;7.15;;;;;;;;;;5033751;28;20119;-41
2022/12/27 03:49:53;;;;;;;21.25;8.35;;;;;;;;;;5005582;28;20070;-41
2022/12/27 03:52:35;;;;;;;20.92;6.85;;;;;;;;;;5033875;28;20041;-41
2022/12/27 03:55:01;;;;;;;16.80;7.47;;;;;;;;;;5033698;28;20439;-41
2022/12/27 03:57:26;;;;;;;21.25;8.00;;;;;;;;;;5034048;28;20022;-40
2022/12/27 03:59:52;;;;;;;27.45;9.00;;;;;;;;;;5034218;28;20079;-41
2022/12/27 04:02:18;;;;;;;26.50;9.57;;;;;;;;;;5033722;28;20025;-41
2022/12/27 04:04:44;;;;;;;33.30;9.82;;;;;;;;;;5033522;28;20373;-41
2022/12/27 04:07:11;;;;;;;21.85;8.85;;;;;;;;;;5033678;28;20022;-41
2022/12/27 04:36:56;;;;;;;16.13;6.30;;;;;;;;;;5015173;28;20041;-41
2022/12/27 04:39:21;;;;;;;23.13;8.35;;;;;;;;;;5015229;28;20034;-41
2022/12/27 04:55:28;;;;;;;20.20;7.10;;;;;;;;;;5032139;28;20029;-40
2022/12/27 04:57:54;;;;;;;15.75;6.90;;;;;;;;;;5032577;28;20053;-41
2022/12/27 05:03:23;;;;;;;17.05;7.90;;;;;;;;;;5032644;28;20043;-41
2022/12/27 05:05:49;;;;;;;16.00;7.05;;;;;;;;;;5032710;28;20037;-42
2022/12/27 05:14:01;;;;;;;17.42;6.25;;;;;;;;;;5032080;28;20045;-40
2022/12/27 05:16:27;;;;;;;16.67;7.15;;;;;;;;;;5032363;28;20037;-40
2022/12/27 05:18:53;;;;;;;23.77;9.18;;;;;;;;;;5032341;28;20049;-41
2022/12/27 05:21:18;;;;;;;14.98;6.43;;;;;;;;;;5032522;28;20111;-41
2022/12/27 05:26:29;;;;;;;22.02;8.38;;;;;;;;;;5032202;28;20034;-41
2022/12/27 05:28:55;;;;;;;20.27;8.60;;;;;;;;;;5031863;28;20042;-41
2022/12/27 05:31:22;;;;;;;18.05;8.10;;;;;;;;;;5032362;28;20038;-41
2022/12/27 05:33:48;;;;;;;22.15;7.60;;;;;;;;;;5031844;28;20025;-41
2022/12/27 05:36:13;;;;;;;16.83;6.93;;;;;;;;;;5031936;28;20044;-41
2022/12/27 05:38:39;;;;;;;20.20;7.22;;;;;;;;;;5031984;28;20064;-41
2022/12/27 05:41:04;;;;;;;15.43;6.85;;;;;;;;;;5032005;28;20610;-40
2022/12/27 05:43:30;;;;;;;20.40;8.20;;;;;;;;;;5031864;28;20021;-41
2022/12/27 05:46:01;;;;;;;18.83;8.75;;;;;;;;;;5031757;28;20042;-41
2022/12/27 05:48:26;;;;;;;21.95;7.13;;;;;;;;;;5031570;28;20125;-41
2022/12/27 05:50:52;;;;;;;9.80;5.18;;;;;;;;;;5013950;28;20129;-40
2022/12/27 05:53:17;;;;;;;15.38;5.45;;;;;;;;;;5031718;28;20068;-41
2022/12/27 05:55:43;;;;;;;20.90;5.93;;;;;;;;;;5031801;28;20067;-41
2022/12/27 05:58:08;;;;;;;15.30;6.10;;;;;;;;;;5031860;28;20060;-41
2022/12/27 06:00:33;;;;;;;16.75;7.63;;;;;;;;;;5031637;28;20128;-41
2022/12/27 06:03:00;;;;;;;13.73;6.68;;;;;;;;;;5031465;28;20041;-41
2022/12/27 06:05:26;;;;;;;17.55;7.07;;;;;;;;;;5031840;28;20104;-40
2022/12/27 06:07:52;;;;;;;18.92;6.75;;;;;;;;;;5030440;28;20113;-41
2022/12/27 06:10:17;;;;;;;16.65;8.07;;;;;;;;;;5031451;28;20048;-40
2022/12/27 06:12:42;;;;;;;15.70;6.93;;;;;;;;;;5031393;28;20048;-40
2022/12/27 06:15:08;;;;;;;15.20;7.40;;;;;;;;;;5031405;28;20033;-41
2022/12/27 06:17:33;;;;;;;12.30;5.35;;;;;;;;;;5031240;28;20091;-41
2022/12/27 06:19:59;;;;;;;18.80;8.90;;;;;;;;;;5031557;28;20113;-41
2022/12/27 06:22:24;;;;;;;13.98;7.00;;;;;;;;;;5031304;28;20034;-40
2022/12/27 06:24:49;;;;;;;11.15;5.03;;;;;;;;;;5013444;28;20052;-41
2022/12/27 06:27:15;;;;;;;24.17;7.75;;;;;;;;;;5031271;28;20040;-40
2022/12/27 06:29:40;;;;;;;28.05;7.70;;;;;;;;;;5031145;28;20025;-41
2022/12/27 06:32:06;;;;;;;14.35;6.05;;;;;;;;;;5031052;28;20025;-41
2022/12/27 06:34:31;;;;;;;14.73;6.85;;;;;;;;;;5031266;28;20037;-40
2022/12/27 06:36:57;;;;;;;17.80;7.13;;;;;;;;;;5031321;28;20027;-41
2022/12/27 06:39:22;;;;;;;19.23;7.72;;;;;;;;;;5031172;28;20487;-41
2022/12/27 06:41:49;;;;;;;22.52;7.97;;;;;;;;;;5031083;28;20495;-41
2022/12/27 06:44:15;;;;;;;19.05;5.93;;;;;;;;;;5031364;28;20032;-40
2022/12/27 06:46:40;;;;;;;22.42;7.47;;;;;;;;;;5031020;28;20359;-41
2022/12/27 06:49:05;;;;;;;19.23;8.27;;;;;;;;;;5030969;28;20494;-40
2022/12/27 06:51:32;;;;;;;14.98;5.20;;;;;;;;;;5031296;28;20432;-40
2022/12/27 06:53:57;;;;;;;16.25;6.90;;;;;;;;;;5031220;28;20068;-41
2022/12/27 06:56:23;;;;;;;13.45;7.68;;;;;;;;;;5031326;28;20029;-41
2022/12/27 06:58:49;;;;;;;17.50;5.57;;;;;;;;;;5031157;28;20523;-41
2022/12/27 07:01:15;;;;;;;16.80;5.57;;;;;;;;;;5030945;28;20036;-40
2022/12/27 07:03:41;;;;;;;17.20;5.88;;;;;;;;;;5030996;28;20029;-41
2022/12/27 07:06:08;;;;;;;15.50;5.90;;;;;;;;;;5031029;28;20089;-41
2022/12/27 07:08:33;;;;;;;19.73;6.30;;;;;;;;;;5030815;28;20088;-41
2022/12/27 07:11:00;;;;;;;11.27;5.97;;;;;;;;;;5031128;28;20508;-41
2022/12/27 07:13:26;;;;;;;10.30;5.22;;;;;;;;;;5030818;28;20384;-40
2022/12/27 07:15:51;;;;;;;14.32;6.13;;;;;;;;;;5031209;28;20040;-40
2022/12/27 07:18:16;;;;;;;16.45;5.22;;;;;;;;;;5032305;28;20112;-41
2022/12/27 07:20:42;;;;;;;14.30;5.38;;;;;;;;;;5034347;28;20025;-41
2022/12/27 07:23:08;;;;;;;17.10;6.38;;;;;;;;;;5034568;28;20539;-41
2022/12/27 07:25:34;;;;;;;11.93;4.78;;;;;;;;;;5034475;28;20029;-41
2022/12/27 07:27:59;;;;;;;21.20;8.25;;;;;;;;;;5034100;28;20063;-41
2022/12/27 07:30:25;;;;;;;16.80;6.22;;;;;;;;;;5034639;28;20033;-41
2022/12/27 07:32:50;;;;;;;16.67;6.57;;;;;;;;;;5034464;28;20021;-40
2022/12/27 07:35:16;;;;;;;18.60;8.07;;;;;;;;;;5034140;28;20037;-41
2022/12/27 07:37:41;;;;;;;16.58;6.57;;;;;;;;;;5034449;28;20025;-40
2022/12/27 07:40:07;;;;;;;16.92;7.40;;;;;;;;;;5034104;28;20470;-41
2022/12/27 07:42:32;;;;;;;14.55;6.28;;;;;;;;;;5034360;28;20021;-40
2022/12/27 07:44:58;;;;;;;14.30;5.47;;;;;;;;;;5034291;28;20044;-41
2022/12/27 07:47:23;;;;;;;11.40;4.40;;;;;;;;;;5033911;28;20042;-41
2022/12/27 07:49:49;;;;;;;9.68;5.15;;;;;;;;;;5033850;28;20373;-41
2022/12/27 07:52:14;;;;;;;16.08;5.97;;;;;;;;;;5033970;28;20032;-41
2022/12/27 07:54:40;;;;;;;14.20;6.30;;;;;;;;;;5033975;28;20056;-41
2022/12/27 07:57:06;;;;;;;9.90;4.72;;;;;;;;;;5033947;28;20021;-41
2022/12/27 07:59:31;;;;;;;15.45;7.70;;;;;;;;;;5033857;28;20037;-41
2022/12/27 08:02:06;;;;;;;9.40;4.38;;;;;;;;;;5034043;28;20018;-40
2022/12/27 08:04:32;;;;;;;12.82;6.40;;;;;;;;;;5033666;28;20021;-41
2022/12/27 08:07:17;;;;;;;15.15;5.38;;;;;;;;;;5033806;28;20014;-41
2022/12/27 08:09:43;;;;;;;9.25;5.47;;;;;;;;;;5033824;28;20041;-41
2022/12/27 08:12:09;;;;;;;7.07;4.85;;;;;;;;;;5033818;28;20027;-40
2022/12/27 08:14:37;;;;;;;10.52;6.03;;;;;;;;;;5015774;28;20120;-41
2022/12/27 08:17:04;;;;;;;9.07;5.47;;;;;;;;;;5033402;28;20025;-41
2022/12/27 08:19:29;;;;;;;11.00;5.60;;;;;;;;;;5033443;28;20026;-40
2022/12/27 08:21:56;;;;;;;12.32;4.82;;;;;;;;;;5033267;28;20095;-41
2022/12/27 08:24:23;;;;;;;10.80;6.07;;;;;;;;;;5033289;28;20495;-41
2022/12/27 08:26:49;;;;;;;14.30;5.78;;;;;;;;;;5033403;28;20029;-41
2022/12/27 08:29:15;;;;;;;13.65;5.57;;;;;;;;;;5032549;28;20396;-40
2022/12/27 08:31:41;;;;;;;11.40;6.13;;;;;;;;;;5032889;28;20049;-41
2022/12/27 08:34:10;;;;;;;9.48;4.97;;;;;;;;;;5032806;28;20033;-40
2022/12/27 08:36:37;;;;;;;16.25;7.18;;;;;;;;;;5033158;28;20023;-41
2022/12/27 08:39:02;;;;;;;13.80;4.72;;;;;;;;;;5032781;28;20037;-40
2022/12/27 08:41:28;;;;;;;10.57;5.78;;;;;;;;;;5033078;28;20013;-41
2022/12/27 08:43:54;;;;;;;14.82;5.90;;;;;;;;;;5032889;28;20431;-40
2022/12/27 08:46:20;;;;;;;15.00;5.47;;;;;;;;;;5011588;28;20046;-40
2022/12/27 08:48:47;;;;;;;11.55;6.47;;;;;;;;;;5012951;28;20038;-40
2022/12/27 08:51:16;;;;;;;8.95;5.03;;;;;;;;;;5013071;28;20029;-42
2022/12/27 08:53:43;;;;;;;12.65;5.25;;;;;;;;;;5012991;28;20131;-40
2022/12/27 08:56:09;;;;;;;14.57;5.57;;;;;;;;;;5012969;28;20468;-40
2022/12/27 08:58:35;;;;;;;11.85;6.05;;;;;;;;;;5012680;28;20496;-41
2022/12/27 09:01:08;;;;;;;12.63;6.03;;;;;;;;;;5012747;28;20029;-40
2022/12/27 09:03:33;;;;;;;;;;;;;;;;;;5013315;28;20518;-40
2022/12/27 09:06:06;;;;;;;14.80;4.45;;;;;;;;;;5013050;28;19906;-40
2022/12/27 09:08:31;;;;;;;14.63;5.82;;;;;;;;;;5012881;28;20119;-41
2022/12/27 09:11:05;;;;;;;19.60;6.60;;;;;;;;;;5012902;28;20116;-40
2022/12/27 09:13:30;;;;;;;8.38;5.00;;;;;;;;;;5012966;28;20029;-41
2022/12/27 09:15:56;;;;;;;12.75;7.13;;;;;;;;;;5012489;28;20153;-40
2022/12/27 09:18:22;;;;;;;8.65;4.47;;;;;;;;;;5012535;28;20081;-41
2022/12/27 09:20:47;;;;;;;8.82;5.68;;;;;;;;;;5012278;28;20032;-41
2022/12/27 09:23:12;;;;;;;9.18;5.03;;;;;;;;;;5012773;28;20030;-41
2022/12/27 09:25:38;;;;;;;10.40;5.80;;;;;;;;;;5012431;28;20026;-41
2022/12/27 09:28:04;;;;;;;10.95;6.30;;;;;;;;;;5012199;28;20096;-40
2022/12/27 09:30:29;;;;;;;9.68;5.32;;;;;;;;;;5012609;28;20029;-40
2022/12/27 09:32:56;;;;;;;6.70;4.63;;;;;;;;;;5012266;28;20503;-40
2022/12/27 09:35:22;;;;;;;12.45;5.13;;;;;;;;;;5012212;28;20040;-40
2022/12/27 09:37:48;;;;;;;10.38;6.07;;;;;;;;;;5012098;28;20061;-40
2022/12/27 09:40:15;;;;;;;6.95;3.45;;;;;;;;;;5012496;28;20046;-40
2022/12/27 09:42:41;;;;;;;8.90;5.20;;;;;;;;;;5012000;28;20032;-40
2022/12/27 09:45:11;;;;;;;12.93;6.45;;;;;;;;;;5012009;28;20104;-40
2022/12/27 09:47:44;;;;;;;10.55;5.25;;;;;;;;;;5030320;28;20041;-40
2022/12/27 09:50:33;;;;;;;9.07;5.18;;;;;;;;;;5031809;28;20044;-40
2022/12/27 09:53:02;;;;;;;11.63;5.82;;;;;;;;;;5023657;28;20463;-40
2022/12/27 09:55:37;;;;;;;10.85;5.53;;;;;;;;;;5031753;28;20087;-40
2022/12/27 09:58:41;;;;;;;11.20;4.78;;;;;;;;;;5031455;28;20048;-40
2022/12/27 10:01:33;;;;;;;12.88;6.90;;;;;;;;;;4970302;28;20082;-41
2022/12/27 10:03:59;;;;;;;13.57;5.82;;;;;;;;;;4968260;28;20537;-40
2022/12/27 10:06:30;;;;;;;11.30;6.75;;;;;;;;;;5009823;28;20033;-40
2022/12/27 10:09:02;;;;;;;17.48;8.30;;;;;;;;;;5030955;28;20069;-41
2022/12/27 10:11:37;;;;;;;12.57;7.25;;;;;;;;;;5013804;28;20127;-41
2022/12/27 10:14:21;;;;;;;18.40;7.15;;;;;;;;;;5031906;28;20033;-40
2022/12/27 10:16:59;;;;;;;10.43;5.60;;;;;;;;;;5031253;28;20076;-41
2022/12/27 10:19:31;;;;;;;12.32;5.28;;;;;;;;;;5031343;28;20502;-41
2022/12/27 10:22:04;;;;;;;14.30;6.18;;;;;;;;;;5031535;28;20036;-40
2022/12/27 10:24:36;;;;;;;12.13;5.57;;;;;;;;;;5031651;28;20076;-40
2022/12/27 10:27:07;;;;;;;9.52;5.95;;;;;;;;;;5031353;28;20048;-42
2022/12/27 10:29:33;;;;;;;11.50;5.55;;;;;;;;;;5031503;28;20432;-41
2022/12/27 10:31:58;;;;;;;12.40;5.55;;;;;;;;;;5031142;28;20163;-41
2022/12/27 10:34:23;;;;;;;10.48;5.82;;;;;;;;;;5031374;28;20424;-41
2022/12/27 10:36:50;;;;;;;14.98;4.57;;;;;;;;;;5031087;28;20017;-40
2022/12/27 10:39:20;;;;;;;12.38;5.97;;;;;;;;;;5031268;28;20033;-40
2022/12/27 10:41:53;;;;;;;6.90;4.30;;;;;;;;;;5031434;28;20471;-41
2022/12/27 10:44:18;;;;;;;;;;;;;;;;;;5031885;28;20108;-40
2022/12/27 10:46:48;;;;;;;8.25;4.82;;;;;;;;;;5030935;28;19921;-40
2022/12/27 10:49:21;;;;;;;14.02;5.15;;;;;;;;;;5031165;28;20049;-40
2022/12/27 10:51:47;;;;;;;9.70;6.13;;;;;;;;;;5031106;28;20021;-40
2022/12/27 10:54:26;;;;;;;12.88;5.45;;;;;;;;;;5033869;28;20458;-41
2022/12/27 10:56:53;;;;;;;10.65;4.82;;;;;;;;;;5017165;28;20384;-40
2022/12/27 10:59:18;;;;;;;15.10;6.38;;;;;;;;;;5035014;28;20053;-40
2022/12/27 11:02:05;;;;;;;16.00;5.82;;;;;;;;;;5035053;28;20025;-41
2022/12/27 11:04:31;;;;;;;10.88;4.90;;;;;;;;;;5034344;28;20041;-42
2022/12/27 11:07:02;;;;;;;14.35;5.05;;;;;;;;;;5034924;28;20021;-41
2022/12/27 11:09:32;;;;;;;16.00;5.57;;;;;;;;;;5034651;28;20041;-40
2022/12/27 11:12:13;;;;;;;13.40;7.07;;;;;;;;;;5034567;28;20034;-41
2022/12/27 11:14:39;;;;;;;13.30;5.65;;;;;;;;;;5034997;28;20029;-40
2022/12/27 11:17:09;;;;;;;11.95;6.25;;;;;;;;;;5034498;28;20025;-41
2022/12/27 11:19:36;;;;;;;12.52;5.60;;;;;;;;;;5034847;28;20127;-41
2022/12/27 11:22:04;;;;;;;9.63;5.57;;;;;;;;;;5034742;28;20021;-41
2022/12/27 11:24:30;;;;;;;9.20;5.20;;;;;;;;;;5034553;28;20526;-41
2022/12/27 11:26:57;;;;;;;6.82;3.92;;;;;;;;;;5034258;28;20025;-40
2022/12/27 11:29:24;;;;;;;15.52;5.78;;;;;;;;;;5034315;28;20395;-41
2022/12/27 11:31:50;;;;;;;11.57;5.90;;;;;;;;;;5034337;28;20442;-41
2022/12/27 11:34:16;;;;;;;12.38;4.18;;;;;;;;;;5034322;28;20510;-40
2022/12/27 11:36:44;;;;;;;9.43;5.07;;;;;;;;;;5034099;28;20036;-41
2022/12/27 11:39:28;;;;;;;12.05;6.25;;;;;;;;;;5034442;28;20369;-40
2022/12/27 11:41:55;;;;;;;8.68;4.72;;;;;;;;;;5034134;28;20029;-40
2022/12/27 11:44:28;;;;;;;10.70;5.38;;;;;;;;;;5034332;28;20116;-40
2022/12/27 11:46:56;;;;;;;7.90;4.95;;;;;;;;;;5033787;28;20103;-41
2022/12/27 11:49:24;;;;;;;12.70;5.55;;;;;;;;;;5016196;28;20474;-41
2022/12/27 11:52:06;;;;;;;9.48;4.53;;;;;;;;;;5033832;28;20026;-40
2022/12/27 11:54:37;;;;;;;7.80;5.38;;;;;;;;;;5034227;28;20120;-40
2022/12/27 11:57:09;;;;;;;10.60;4.53;;;;;;;;;;5033722;28;20038;-40
2022/12/27 11:59:58;;;;;;;7.72;3.53;;;;;;;;;;5033820;28;20490;-41
2022/12/27 12:02:31;;;;;;;10.45;4.70;;;;;;;;;;5033823;28;20068;-40
2022/12/27 12:05:06;;;;;;;11.10;4.95;;;;;;;;;;5033534;28;20057;-41
2022/12/27 12:07:50;;;;;;;8.90;4.93;;;;;;;;;;5033609;28;20674;-40
2022/12/27 12:10:37;;;;;;;11.00;5.72;;;;;;;;;;5033645;28;20034;-40
2022/12/27 12:13:16;;;;;;;11.88;4.82;;;;;;;;;;5033406;28;20037;-41
2022/12/27 12:15:57;;;;;;;11.10;4.68;;;;;;;;;;5033795;28;20041;-41
2022/12/27 12:18:42;;;;;;;13.13;4.90;;;;;;;;;;5033415;28;20064;-42
2022/12/27 12:21:23;;;;;;;8.57;3.72;;;;;;;;;;5033346;28;20041;-40
2022/12/27 12:24:09;;;;;;;10.70;5.07;;;;;;;;;;5033254;28;20030;-40
2022/12/27 12:26:47;;;;;;;14.75;5.20;;;;;;;;;;5022416;28;20037;-40
2022/12/27 12:29:25;;;;;;;31.10;10.00;;;;;;;;;;5033403;28;20125;-41
2022/12/27 12:32:14;;;;;;;15.35;7.13;;;;;;;;;;5033256;28;20484;-41
2022/12/27 12:34:53;;;;;;;24.20;7.63;;;;;;;;;;5033167;28;20542;-41
2022/12/27 12:37:28;;;;;;;19.30;8.90;;;;;;;;;;5033218;28;20037;-40
2022/12/27 12:40:13;;;;;;;25.67;7.45;;;;;;;;;;5033005;28;20076;-40
2022/12/27 12:42:40;;;;;;;28.48;9.70;;;;;;;;;;5032962;28;20396;-41
2022/12/27 12:45:18;;;;;;;36.35;9.48;;;;;;;;;;5032875;28;20025;-40
2022/12/27 12:48:02;;;;;;;25.08;9.73;;;;;;;;;;5032603;28;20068;-40
2022/12/27 12:50:54;;;;;;;16.67;7.25;;;;;;;;;;5032942;28;20487;-41
2022/12/27 12:53:42;;;;;;;21.45;8.63;;;;;;;;;;5029800;28;20045;-41
2022/12/27 12:56:11;;;;;;;23.27;9.63;;;;;;;;;;5024283;28;20046;-41
2022/12/27 12:58:36;;;;;;;15.90;7.75;;;;;;;;;;5032967;28;20013;-41
2022/12/27 13:01:13;;;;;;;27.67;8.95;;;;;;;;;;5032895;28;20044;-41
2022/12/27 13:03:52;;;;;;;24.63;8.75;;;;;;;;;;5032640;28;20063;-40
2022/12/27 13:06:20;;;;;;;21.42;9.82;;;;;;;;;;5032843;28;20044;-41
2022/12/27 13:09:02;;;;;;;24.77;10.90;;;;;;;;;;5032479;28;20111;-40
2022/12/27 13:11:40;;;;;;;23.88;9.48;;;;;;;;;;5032453;28;20514;-40
2022/12/27 13:14:06;;;;;;;37.60;11.63;;;;;;;;;;5014607;28;20125;-40
2022/12/27 13:16:41;;;;;;;25.20;9.65;;;;;;;;;;5032085;28;20112;-41
2022/12/27 13:19:26;;;;;;;25.77;10.02;;;;;;;;;;5014507;28;20623;-44
2022/12/27 13:22:11;;;;;;;22.77;11.63;;;;;;;;;;5014889;28;20040;-41
2022/12/27 13:24:55;;;;;;;25.05;9.65;;;;;;;;;;5032472;28;20109;-41
2022/12/27 13:27:27;;;;;;;24.20;11.07;;;;;;;;;;5032380;28;20048;-41
2022/12/27 13:29:58;;;;;;;24.65;9.80;;;;;;;;;;5032002;28;20045;-41
2022/12/27 13:32:26;;;;;;;31.83;13.55;;;;;;;;;;5032067;28;20028;-41
2022/12/27 13:35:04;;;;;;;32.30;13.23;;;;;;;;;;5032255;28;20254;-41
2022/12/27 13:37:48;;;;;;;41.45;14.02;;;;;;;;;;5031905;28;20434;-41
2022/12/27 13:40:16;;;;;;;45.03;16.80;;;;;;;;;;5031865;28;20473;-41
2022/12/27 13:42:50;;;;;;;54.47;18.88;;;;;;;;;;5032042;28;20391;-40
2022/12/27 13:45:34;;;;;;;41.55;14.32;;;;;;;;;;5032092;28;20025;-41
2022/12/27 13:48:17;;;;;;;45.80;15.07;;;;;;;;;;5031652;28;20041;-42
2022/12/27 13:50:55;;;;;;;44.45;14.45;;;;;;;;;;5031791;28;20407;-41
2022/12/27 13:53:26;;;;;;;37.38;14.48;;;;;;;;;;5031764;28;20025;-41
2022/12/27 13:55:55;;;;;;;37.97;12.55;;;;;;;;;;5031585;28;20041;-40
2022/12/27 13:58:33;;;;;;;40.42;15.00;;;;;;;;;;5013866;28;20506;-40
2022/12/27 14:01:17;;;;;;;37.85;13.80;;;;;;;;;;5031578;28;20113;-41
2022/12/27 14:03:43;;;;;;;43.13;13.07;;;;;;;;;;5031838;28;20048;-40
2022/12/27 14:06:15;;;;;;;42.97;14.13;;;;;;;;;;5031326;28;20468;-41
2022/12/27 14:08:49;;;;;;;37.78;15.43;;;;;;;;;;5031485;28;20514;-41
2022/12/27 14:11:30;;;;;;;32.90;13.57;;;;;;;;;;5031431;28;20115;-40
2022/12/27 14:13:57;;;;;;;44.03;16.63;;;;;;;;;;5031388;28;20061;-41
2022/12/27 14:16:49;;;;;;;48.83;15.98;;;;;;;;;;5031363;28;20075;-40
2022/12/27 14:19:20;;;;;;;38.10;14.38;;;;;;;;;;5000450;28;20400;-41
2022/12/27 14:21:52;;;;;;;40.53;12.93;;;;;;;;;;5031309;28;20516;-41
2022/12/27 14:24:40;;;;;;;41.33;14.73;;;;;;;;;;5031334;28;20491;-41
2022/12/27 14:27:24;;;;;;;35.22;14.25;;;;;;;;;;4993279;28;20399;-41
2022/12/27 14:30:00;;;;;;;40.95;13.93;;;;;;;;;;5031389;28;20042;-41
2022/12/27 14:32:26;;;;;;;35.45;15.68;;;;;;;;;;5031587;28;20167;-41
2022/12/27 14:35:10;;;;;;;39.03;14.93;;;;;;;;;;5013411;28;20116;-40
2022/12/27 14:37:48;;;;;;;38.58;14.15;;;;;;;;;;5031148;28;20045;-40
2022/12/27 14:40:13;;;;;;;36.65;15.80;;;;;;;;;;5031059;28;20037;-40
2022/12/27 14:43:05;;;;;;;40.33;15.25;;;;;;;;;;5031206;28;20017;-41
2022/12/27 14:45:31;;;;;;;36.13;16.10;;;;;;;;;;5000393;28;20038;-40
2022/12/27 14:48:02;;;;;;;49.58;16.27;;;;;;;;;;5030950;28;20534;-41
2022/12/27 14:50:46;;;;;;;37.83;14.73;;;;;;;;;;5031153;28;20033;-40
2022/12/27 14:53:11;;;;;;;50.30;15.05;;;;;;;;;;5031021;28;20464;-40
2022/12/27 14:55:37;;;;;;;33.65;14.30;;;;;;;;;;5013432;28;20030;-41
2022/12/27 14:58:21;;;;;;;48.15;14.88;;;;;;;;;;5031182;28;20025;-41
2022/12/27 15:01:05;;;;;;;34.28;14.13;;;;;;;;;;5031019;28;20029;-41
2022/12/27 15:03:33;;;;;;;38.85;12.48;;;;;;;;;;5030918;28;20429;-41
2022/12/27 15:05:59;;;;;;;37.33;13.23;;;;;;;;;;5030815;28;20108;-40
2022/12/27 15:08:27;;;;;;;39.47;12.63;;;;;;;;;;5030810;28;20435;-40
2022/12/27 15:11:11;;;;;;;22.77;10.23;;;;;;;;;;5030670;28;20024;-41
2022/12/27 15:13:51;;;;;;;33.35;11.65;;;;;;;;;;5030954;28;20376;-41
2022/12/27 15:16:39;;;;;;;22.40;10.70;;;;;;;;;;5030770;28;20079;-41
2022/12/27 15:19:25;;;;;;;18.40;7.78;;;;;;;;;;5030665;28;20029;-41
2022/12/27 15:22:09;;;;;;;18.75;8.77;;;;;;;;;;5030745;28;20033;-41
2022/12/27 15:24:53;;;;;;;23.75;11.00;;;;;;;;;;5031011;28;20542;-40
2022/12/27 15:27:18;;;;;;;25.23;10.10;;;;;;;;;;5031020;28;20029;-41
2022/12/27 15:29:46;;;;;;;23.42;9.18;;;;;;;;;;5030660;28;20036;-41
2022/12/27 15:32:15;;;;;;;14.02;6.65;;;;;;;;;;5030630;28;20103;-41
2022/12/27 15:34:41;;;;;;;16.35;7.65;;;;;;;;;;5030719;28;20025;-41
2022/12/27 15:37:26;;;;;;;11.18;5.95;;;;;;;;;;5030546;28;20026;-40
2022/12/27 15:39:52;;;;;;;13.10;8.43;;;;;;;;;;5032468;28;20119;-40
2022/12/27 15:42:18;;;;;;;10.40;6.88;;;;;;;;;;5034134;28;20079;-40
2022/12/27 15:44:49;;;;;;;14.95;7.68;;;;;;;;;;5034148;28;20476;-40
2022/12/27 15:47:15;;;;;;;8.80;6.13;;;;;;;;;;5033561;28;20095;-40
2022/12/27 15:49:55;;;;;;;5.85;4.55;;;;;;;;;;5034287;28;20424;-41
2022/12/27 15:52:36;;;;;;;7.40;4.10;;;;;;;;;;5034055;28;20044;-41
2022/12/27 15:55:20;;;;;;;13.02;5.57;;;;;;;;;;5033841;28;20052;-40
2022/12/27 15:58:05;;;;;;;3.53;2.95;;;;;;;;;;5033862;28;20489;-41
2022/12/27 16:00:30;;;;;;;5.68;4.10;;;;;;;;;;5033694;28;20029;-40
2022/12/27 16:02:56;;;;;;;4.63;3.30;;;;;;;;;;5033721;28;20017;-41
2022/12/27 16:05:21;;;;;;;8.55;3.25;;;;;;;;;;5033808;28;20028;-41
2022/12/27 16:07:47;;;;;;;4.57;3.67;;;;;;;;;;5033523;28;20028;-41
2022/12/27 16:10:37;;;;;;;4.57;3.80;;;;;;;;;;5033666;28;20065;-41
2022/12/27 16:13:08;;;;;;;6.63;4.38;;;;;;;;;;5033402;28;20527;-41
2022/12/27 16:15:39;;;;;;;4.00;2.65;;;;;;;;;;5033531;28;20029;-40
2022/12/27 16:18:25;;;;;;;3.65;2.55;;;;;;;;;;5033474;28;20026;-41
2022/12/27 16:20:59;;;;;;;4.50;2.85;;;;;;;;;;5033481;28;20472;-41
2022/12/27 16:23:29;;;;;;;3.75;3.33;;;;;;;;;;5033713;28;20482;-41
2022/12/27 16:26:14;;;;;;;3.60;2.38;;;;;;;;;;5033351;28;20040;-40
2022/12/27 16:28:40;;;;;;;5.22;2.92;;;;;;;;;;5015814;28;20038;-41